Time;durP1;ratioP1;P1;durP2;ratioP2;P2;SDS_P1;SDS_P2;PMS_P1;PMS_P2;Temp;Humidity;BMP_temperature;BMP_pressure;BME280_temperature;BME280_humidity;BME280_pressure;Samples;Min_cycle;Max_cycle;Signal;HPM_P1;HPM_P2
2022/12/29 00:01:10;;;;;;;11.07;10.27;;;9.60;99.90;;;;;;5039328;28;20536;-79
2022/12/29 00:03:50;;;;;;;11.20;10.40;;;9.60;99.90;;;;;;5039355;28;20459;-79
2022/12/29 00:06:29;;;;;;;10.40;9.60;;;9.60;99.90;;;;;;5042320;28;20473;-79
2022/12/29 00:08:57;;;;;;;10.30;9.60;;;9.60;99.90;;;;;;5045907;28;20446;-78
2022/12/29 00:11:27;;;;;;;11.70;10.80;;;9.70;99.90;;;;;;5046003;28;20450;-79
2022/12/29 00:16:44;;;;;;;11.40;10.60;;;9.70;99.90;;;;;;5047239;28;20473;-80
2022/12/29 00:35:57;;;;;;;13.60;12.70;;;9.70;99.90;;;;;;5013226;28;20470;-79
2022/12/29 00:44:12;;;;;;;15.20;14.00;;;9.80;99.90;;;;;;5043352;28;20449;-80
2022/12/29 00:46:43;;;;;;;14.73;13.53;;;11.20;99.90;;;;;;5043994;28;20519;-79
2022/12/29 00:49:31;;;;;;;15.90;14.60;;;9.80;99.90;;;;;;5043814;28;20835;-78
2022/12/29 00:52:05;;;;;;;16.70;15.43;;;9.80;99.90;;;;;;5043314;28;20967;-78
2022/12/29 00:54:36;;;;;;;15.67;14.50;;;9.80;99.90;;;;;;5043182;28;20472;-77
2022/12/29 00:57:06;;;;;;;16.67;15.47;;;9.80;99.90;;;;;;5042399;28;20434;-78
2022/12/29 00:59:36;;;;;;;16.43;15.13;;;9.80;99.90;;;;;;5041315;28;20470;-79
2022/12/29 01:02:04;;;;;;;16.53;15.33;;;9.80;99.90;;;;;;5042882;28;20450;-79
2022/12/29 01:04:33;;;;;;;16.87;15.37;;;9.80;99.90;;;;;;5059867;28;20505;-79
2022/12/29 01:07:03;;;;;;;14.60;13.50;;;9.90;99.90;;;;;;5042113;28;20454;-79
2022/12/29 01:12:39;;;;;;;15.13;13.90;;;9.90;99.90;;;;;;5042181;28;20484;-79
2022/12/29 01:15:08;;;;;;;14.83;13.83;;;9.90;99.90;;;;;;5040677;28;20478;-77
2022/12/29 01:17:36;;;;;;;14.33;13.30;;;9.90;99.90;;;;;;5040649;28;20469;-78
2022/12/29 01:20:06;;;;;;;15.37;14.17;;;9.90;99.90;;;;;;5040609;28;20473;-78
2022/12/29 01:22:37;;;;;;;14.37;13.37;;;9.90;99.90;;;;;;5039298;28;20442;-80
2022/12/29 01:25:06;;;;;;;14.37;13.33;;;10.00;99.90;;;;;;5039883;28;21086;-78
2022/12/29 01:27:35;;;;;;;13.40;12.40;;;10.00;99.90;;;;;;5058167;28;20440;-78
2022/12/29 01:30:04;;;;;;;12.70;11.60;;;10.00;99.90;;;;;;5039723;28;20474;-79
2022/12/29 01:32:32;;;;;;;13.00;11.90;;;10.00;99.90;;;;;;5040586;28;20517;-79
2022/12/29 01:35:01;;;;;;;13.03;12.03;;;10.00;99.90;;;;;;5040177;28;20482;-79
2022/12/29 01:37:29;;;;;;;12.40;11.40;;;10.10;99.90;;;;;;5039960;28;20452;-80
2022/12/29 01:39:58;;;;;;;12.60;11.50;;;10.10;99.90;;;;;;5040601;28;20505;-80
2022/12/29 01:42:27;;;;;;;12.40;11.43;;;10.10;99.90;;;;;;5039418;28;20536;-78
2022/12/29 01:44:56;;;;;;;11.73;10.90;;;10.10;99.90;;;;;;5039502;28;20473;-79
2022/12/29 01:47:34;;;;;;;11.47;10.53;;;10.10;99.90;;;;;;5039874;28;20800;-79
2022/12/29 01:50:07;;;;;;;11.77;10.87;;;10.10;99.90;;;;;;5039476;28;20470;-79
2022/12/29 01:52:37;;;;;;;11.20;10.40;;;10.20;99.90;;;;;;5040373;28;20442;-79
2022/12/29 01:55:10;;;;;;;11.97;11.00;;;10.10;99.90;;;;;;5040905;28;20465;-79
2022/12/29 01:57:41;;;;;;;12.77;11.60;;;10.20;99.90;;;;;;5040118;28;20488;-78
2022/12/29 02:00:13;;;;;;;11.93;10.93;;;10.20;99.90;;;;;;5040102;28;20466;-79
2022/12/29 02:02:45;;;;;;;11.30;10.50;;;10.20;99.90;;;;;;5039949;28;20449;-79
2022/12/29 02:05:21;;;;;;;12.10;11.20;;;10.20;99.90;;;;;;5037898;28;20990;-78
2022/12/29 02:07:51;;;;;;;11.50;10.60;;;10.20;99.90;;;;;;5037913;28;20437;-78
2022/12/29 02:10:22;;;;;;;10.67;9.87;;;10.20;99.90;;;;;;5038057;28;20438;-78
2022/12/29 02:12:51;;;;;;;11.77;10.87;;;10.30;99.90;;;;;;5039500;28;20450;-79
2022/12/29 02:15:29;;;;;;;11.17;10.27;;;10.30;99.90;;;;;;5039349;28;20470;-79
2022/12/29 02:18:10;;;;;;;9.90;9.10;;;10.30;99.90;;;;;;5039929;28;20438;-79
2022/12/29 02:21:23;;;;;;;10.27;9.37;;;10.30;99.90;;;;;;5040100;28;20473;-78
2022/12/29 02:24:12;;;;;;;11.40;10.50;;;10.30;99.90;;;;;;5038626;28;20483;-78
2022/12/29 02:27:12;;;;;;;10.00;9.20;;;10.30;99.90;;;;;;5038329;28;20473;-79
2022/12/29 02:29:54;;;;;;;9.10;8.40;;;10.40;99.90;;;;;;5037443;28;20441;-78
2022/12/29 02:32:35;;;;;;;10.47;9.67;;;10.40;99.90;;;;;;5043807;28;20450;-77
2022/12/29 02:35:14;;;;;;;9.60;8.90;;;10.40;99.90;;;;;;5043475;28;20462;-79
2022/12/29 02:37:49;;;;;;;10.40;9.60;;;10.40;99.90;;;;;;5045867;28;20438;-78
2022/12/29 02:40:24;;;;;;;9.97;9.17;;;10.40;99.90;;;;;;5064850;28;20460;-79
2022/12/29 02:43:00;;;;;;;9.70;8.90;;;10.40;99.90;;;;;;5043520;28;20472;-77
2022/12/29 02:45:35;;;;;;;9.83;9.13;;;10.40;99.90;;;;;;5047228;28;20474;-78
2022/12/29 02:48:11;;;;;;;10.20;9.40;;;10.40;99.90;;;;;;5046569;28;20524;-78
2022/12/29 02:50:44;;;;;;;10.10;9.30;;;10.50;99.90;;;;;;5053104;28;20452;-78
2022/12/29 02:54:40;;;;;;;10.70;9.90;;;10.50;99.90;;;;;;5053497;28;20468;-78
2022/12/29 02:56:06;;;;;;;10.40;9.60;;;10.50;99.90;;;;;;5047350;28;20462;-78
2022/12/29 02:58:34;;;;;;;10.80;10.00;;;10.50;99.90;;;;;;5049442;28;20450;-77
2022/12/29 03:01:22;;;;;;;10.27;9.47;;;10.50;99.90;;;;;;5049847;28;20470;-78
2022/12/29 03:04:07;;;;;;;10.70;9.90;;;10.50;99.90;;;;;;5039089;28;20430;-78
2022/12/29 03:06:52;;;;;;;10.17;9.47;;;10.50;99.90;;;;;;5039329;28;20466;-78
2022/12/29 03:09:32;;;;;;;10.70;10.00;;;10.50;99.90;;;;;;5041940;28;20434;-79
2022/12/29 03:12:08;;;;;;;10.20;9.43;;;10.50;99.90;;;;;;5039621;28;20438;-79
2022/12/29 03:17:47;;;;;;;8.80;8.00;;;10.60;99.90;;;;;;5037065;28;20449;-78
2022/12/29 03:20:22;;;;;;;9.10;8.30;;;10.60;99.90;;;;;;5037556;28;20836;-78
2022/12/29 03:23:00;;;;;;;7.50;7.00;;;10.60;99.90;;;;;;5039630;28;20521;-80
2022/12/29 03:25:33;;;;;;;6.50;6.00;;;10.60;99.90;;;;;;5039574;28;20533;-78
2022/12/29 03:28:08;;;;;;;6.80;6.30;;;10.60;99.90;;;;;;5039698;28;20457;-79
2022/12/29 03:30:43;;;;;;;6.40;5.90;;;10.60;99.90;;;;;;5039582;28;20476;-79
2022/12/29 03:33:16;;;;;;;5.73;5.23;;;10.60;99.90;;;;;;5039754;28;21043;-79
2022/12/29 03:35:49;;;;;;;4.97;4.57;;;10.60;99.90;;;;;;5039425;28;20470;-78
2022/12/29 03:38:20;;;;;;;4.87;4.47;;;10.60;99.90;;;;;;5039041;28;20442;-78
2022/12/29 03:40:52;;;;;;;5.00;4.50;;;10.60;99.90;;;;;;5040429;28;20897;-79
2022/12/29 03:43:20;;;;;;;4.90;4.50;;;10.60;99.90;;;;;;5042971;28;20446;-80
2022/12/29 03:45:49;;;;;;;5.07;4.57;;;10.60;99.90;;;;;;5043724;28;20493;-80
2022/12/29 03:48:18;;;;;;;5.50;5.00;;;10.70;99.90;;;;;;5043403;28;20445;-78
2022/12/29 03:50:49;;;;;;;5.47;4.97;;;10.60;99.90;;;;;;5043970;28;20453;-79
2022/12/29 03:53:18;;;;;;;6.20;5.70;;;10.70;99.90;;;;;;5043103;28;20450;-80
2022/12/29 03:55:47;;;;;;;6.27;5.77;;;10.60;99.90;;;;;;5042412;28;20469;-78
2022/12/29 03:58:16;;;;;;;5.73;5.23;;;10.60;99.90;;;;;;5039996;28;20434;-76
2022/12/29 04:00:59;;;;;;;7.57;6.97;;;10.60;99.90;;;;;;5041666;28;20468;-78
2022/12/29 04:03:31;;;;;;;7.20;6.50;;;10.60;99.90;;;;;;5040730;28;20461;-78
2022/12/29 04:06:01;;;;;;;6.97;6.40;;;10.60;99.90;;;;;;5039805;28;20844;-78
2022/12/29 04:08:36;;;;;;;7.17;6.60;;;10.60;99.90;;;;;;5039771;28;20533;-77
2022/12/29 04:11:04;;;;;;;7.90;7.20;;;10.60;99.90;;;;;;5038836;28;20950;-76
2022/12/29 04:13:32;;;;;;;7.77;7.10;;;10.60;99.90;;;;;;5038701;28;20970;-77
2022/12/29 04:16:01;;;;;;;7.90;7.20;;;10.60;99.90;;;;;;5038575;28;20466;-77
2022/12/29 04:18:29;;;;;;;7.80;7.20;;;10.60;99.90;;;;;;5038474;28;20450;-76
2022/12/29 04:21:03;;;;;;;9.30;8.53;;;10.60;99.90;;;;;;5040167;28;20472;-78
2022/12/29 04:23:37;;;;;;;9.60;8.80;;;10.60;99.90;;;;;;5040186;28;20544;-76
2022/12/29 04:26:08;;;;;;;8.90;8.20;;;10.60;99.90;;;;;;5041494;28;20469;-79
2022/12/29 04:28:49;;;;;;;9.20;8.50;;;10.60;99.90;;;;;;5040790;28;20453;-78
2022/12/29 04:31:28;;;;;;;8.13;7.43;;;10.60;99.90;;;;;;5039704;28;20436;-76
2022/12/29 04:33:57;;;;;;;7.93;7.23;;;10.60;99.90;;;;;;5039337;28;20542;-76
2022/12/29 04:36:25;;;;;;;8.30;7.67;;;10.60;99.90;;;;;;5041980;28;20588;-77
2022/12/29 04:38:59;;;;;;;8.10;7.50;;;10.60;99.90;;;;;;5042854;28;20445;-77
2022/12/29 04:41:27;;;;;;;8.13;7.53;;;10.60;99.90;;;;;;5042751;28;20998;-78
2022/12/29 04:43:56;;;;;;;7.13;6.63;;;10.60;99.90;;;;;;5042153;28;20955;-79
2022/12/29 04:46:56;;;;;;;7.07;6.47;;;10.60;99.90;;;;;;5015232;28;20820;-80
2022/12/29 04:49:43;;;;;;;7.97;7.33;;;10.70;99.90;;;;;;5059108;28;20484;-78
2022/12/29 04:52:40;;;;;;;7.50;6.77;;;10.70;99.90;;;;;;4985742;28;20433;-78
2022/12/29 04:55:12;;;;;;;7.13;6.53;;;10.70;99.90;;;;;;5041489;28;20473;-79
2022/12/29 04:57:41;;;;;;;6.47;5.97;;;10.70;99.90;;;;;;5042109;28;20506;-79
2022/12/29 05:00:15;;;;;;;6.00;5.23;;;10.70;99.90;;;;;;5040881;28;20499;-78
2022/12/29 05:02:43;;;;;;;5.83;5.23;;;10.70;99.90;;;;;;5038254;28;20844;-77
2022/12/29 05:05:12;;;;;;;5.93;5.30;;;10.70;99.90;;;;;;5040059;28;21060;-79
2022/12/29 05:07:43;;;;;;;6.30;5.70;;;10.80;99.90;;;;;;5042353;28;20434;-77
2022/12/29 05:10:14;;;;;;;5.90;5.40;;;10.80;99.90;;;;;;5041209;28;20445;-78
2022/12/29 05:12:42;;;;;;;6.00;5.03;;;10.80;99.90;;;;;;5041748;28;20501;-78
2022/12/29 05:15:13;;;;;;;6.17;5.30;;;10.80;99.90;;;;;;5040516;28;20466;-79
2022/12/29 05:17:43;;;;;;;6.27;5.67;;;10.80;99.90;;;;;;5038577;28;20457;-78
2022/12/29 05:20:12;;;;;;;6.63;5.90;;;10.80;99.90;;;;;;5040008;28;20955;-78
2022/12/29 05:22:40;;;;;;;5.53;5.03;;;10.80;99.90;;;;;;5039759;28;21013;-80
2022/12/29 05:25:09;;;;;;;6.10;4.40;;;10.80;99.90;;;;;;5042278;28;20474;-80
2022/12/29 05:28:02;;;;;;;4.23;3.83;;;10.70;99.90;;;;;;5050395;28;20434;-77
2022/12/29 05:30:41;;;;;;;4.10;3.30;;;10.70;99.90;;;;;;5043235;28;20459;-80
2022/12/29 05:33:11;;;;;;;4.00;2.97;;;10.70;99.90;;;;;;5043730;28;20449;-79
2022/12/29 05:35:40;;;;;;;3.53;2.73;;;10.70;99.90;;;;;;5041291;28;20465;-79
2022/12/29 05:38:09;;;;;;;4.37;2.60;;;10.70;99.90;;;;;;5043623;28;20453;-80
2022/12/29 05:40:38;;;;;;;4.03;2.20;;;10.70;99.90;;;;;;5041640;28;20446;-79
2022/12/29 05:43:19;;;;;;;3.73;1.93;;;10.60;99.90;;;;;;5042058;28;20466;-79
2022/12/29 05:46:08;;;;;;;3.10;2.17;;;10.60;99.90;;;;;;5040103;28;20998;-77
2022/12/29 05:49:07;;;;;;;4.50;2.40;;;10.60;99.90;;;;;;5040889;28;20955;-77
2022/12/29 05:51:44;;;;;;;3.40;2.47;;;10.60;99.90;;;;;;5039965;28;20450;-78
2022/12/29 05:54:13;;;;;;;4.50;3.20;;;10.60;99.90;;;;;;5039975;28;20983;-77
2022/12/29 05:56:42;;;;;;;4.33;3.70;;;10.50;99.90;;;;;;5038757;28;20864;-77
2022/12/29 05:59:12;;;;;;;6.00;4.50;;;10.50;99.90;;;;;;5037808;28;20500;-77
2022/12/29 06:01:40;;;;;;;6.13;5.57;;;10.50;99.90;;;;;;5038016;28;20556;-78
2022/12/29 06:04:09;;;;;;;5.83;5.33;;;10.50;99.90;;;;;;5038616;28;20786;-77
2022/12/29 06:06:38;;;;;;;6.50;5.87;;;10.50;99.90;;;;;;5037356;28;20462;-76
2022/12/29 06:09:12;;;;;;;6.23;5.63;;;10.50;99.90;;;;;;5038767;28;20441;-78
2022/12/29 06:11:41;;;;;;;6.27;5.40;;;10.60;99.90;;;;;;5039744;28;20468;-79
2022/12/29 06:14:09;;;;;;;5.60;5.00;;;10.50;99.90;;;;;;5038429;28;20863;-77
2022/12/29 06:16:39;;;;;;;5.73;5.23;;;10.60;99.90;;;;;;5037987;28;20558;-78
2022/12/29 06:19:11;;;;;;;6.13;4.87;;;10.60;99.90;;;;;;5041865;28;20457;-79
2022/12/29 06:21:41;;;;;;;5.57;5.00;;;10.60;99.90;;;;;;5041235;28;20510;-79
2022/12/29 06:24:10;;;;;;;5.73;4.60;;;10.60;99.90;;;;;;5041702;28;20453;-78
2022/12/29 06:26:40;;;;;;;6.70;5.07;;;10.60;99.90;;;;;;5042627;28;20469;-78
2022/12/29 06:29:09;;;;;;;5.50;4.90;;;10.60;99.90;;;;;;5045021;28;20457;-79
2022/12/29 06:31:39;;;;;;;5.47;4.50;;;10.60;99.90;;;;;;5043411;28;20533;-78
2022/12/29 06:34:08;;;;;;;5.50;5.00;;;10.50;99.90;;;;;;5038907;28;20450;-79
2022/12/29 06:36:37;;;;;;;4.73;4.17;;;10.60;99.90;;;;;;5039984;28;20473;-79
2022/12/29 06:39:05;;;;;;;7.77;5.30;;;10.60;99.90;;;;;;5041738;28;20477;-78
2022/12/29 06:41:34;;;;;;;5.57;4.60;;;10.50;99.90;;;;;;5038973;28;20488;-79
2022/12/29 06:44:21;;;;;;;6.40;5.20;;;10.50;99.90;;;;;;5057533;28;20426;-79
2022/12/29 06:47:02;;;;;;;5.23;4.73;;;10.50;99.90;;;;;;5038292;28;20839;-79
2022/12/29 06:49:31;;;;;;;5.27;4.77;;;10.50;99.90;;;;;;5037697;28;20841;-78
2022/12/29 06:52:00;;;;;;;5.50;4.10;;;10.50;99.90;;;;;;5037110;28;20450;-79
2022/12/29 06:54:28;;;;;;;6.63;4.87;;;10.50;99.90;;;;;;5055495;28;20465;-77
2022/12/29 06:56:57;;;;;;;5.47;4.40;;;10.50;99.90;;;;;;5057411;28;20465;-79
2022/12/29 06:59:25;;;;;;;5.30;4.20;;;10.50;99.90;;;;;;5038251;28;20835;-79
2022/12/29 07:01:54;;;;;;;3.93;3.53;;;10.50;99.90;;;;;;5057351;28;20443;-79
2022/12/29 07:04:23;;;;;;;5.27;4.77;;;10.50;99.90;;;;;;5041862;28;20445;-78
2022/12/29 07:06:52;;;;;;;5.20;4.70;;;10.50;99.90;;;;;;5039952;28;20465;-79
2022/12/29 07:09:20;;;;;;;5.73;4.53;;;10.50;99.90;;;;;;5038151;28;20456;-79
2022/12/29 07:11:48;;;;;;;4.90;4.40;;;10.40;99.90;;;;;;5038200;28;20541;-78
2022/12/29 07:14:16;;;;;;;5.63;4.00;;;10.40;99.90;;;;;;5038350;28;21038;-79
2022/12/29 07:16:45;;;;;;;5.80;4.13;;;10.40;99.90;;;;;;5038503;28;20481;-78
2022/12/29 07:19:13;;;;;;;6.00;3.87;;;10.50;99.90;;;;;;5037235;28;20537;-78
2022/12/29 07:21:42;;;;;;;4.53;3.90;;;10.40;99.90;;;;;;5036436;28;20446;-79
2022/12/29 07:24:13;;;;;;;5.00;3.57;;;10.40;99.90;;;;;;5037311;28;20462;-80
2022/12/29 07:26:42;;;;;;;5.77;3.40;;;10.40;99.90;;;;;;5036043;28;21001;-77
2022/12/29 07:29:10;;;;;;;7.03;4.07;;;10.30;99.90;;;;;;5037306;28;20465;-79
2022/12/29 07:31:38;;;;;;;4.80;2.83;;;10.30;99.90;;;;;;5048999;28;20565;-77
2022/12/29 07:34:06;;;;;;;5.87;3.30;;;10.30;99.90;;;;;;5057802;28;20967;-76
2022/12/29 07:36:35;;;;;;;4.80;2.77;;;10.30;99.90;;;;;;5038408;28;20519;-77
2022/12/29 07:39:05;;;;;;;4.03;2.30;;;10.30;99.90;;;;;;5057249;28;20446;-77
2022/12/29 07:41:36;;;;;;;5.13;2.83;;;10.20;99.90;;;;;;5037605;28;20442;-78
2022/12/29 07:44:05;;;;;;;4.97;2.27;;;10.20;99.90;;;;;;5039568;28;20470;-77
2022/12/29 07:46:56;;;;;;;4.00;2.47;;;10.20;99.90;;;;;;5045076;28;20462;-77
2022/12/29 07:49:26;;;;;;;5.40;2.50;;;10.20;99.90;;;;;;5036892;28;20442;-77
2022/12/29 07:51:54;;;;;;;4.77;2.43;;;10.20;99.90;;;;;;5037348;28;20442;-78
2022/12/29 07:54:24;;;;;;;6.63;2.90;;;10.20;99.90;;;;;;5055015;28;20438;-78
2022/12/29 07:56:52;;;;;;;5.07;2.83;;;10.30;99.90;;;;;;5036959;28;20470;-77
2022/12/29 07:59:20;;;;;;;6.57;2.20;;;10.20;99.90;;;;;;5035746;28;20446;-77
2022/12/29 08:01:49;;;;;;;4.20;1.87;;;10.20;99.90;;;;;;5036927;28;20908;-77
2022/12/29 08:04:17;;;;;;;5.23;2.43;;;10.20;99.90;;;;;;5038455;28;20477;-78
2022/12/29 08:06:46;;;;;;;6.33;2.20;;;10.10;99.90;;;;;;5037143;28;20887;-77
2022/12/29 08:09:14;;;;;;;4.90;2.20;;;10.20;99.90;;;;;;5036028;28;20866;-76
2022/12/29 08:11:51;;;;;;;8.73;2.83;;;10.20;99.90;;;;;;5035731;28;20442;-77
2022/12/29 08:14:19;;;;;;;4.83;1.80;;;10.20;99.90;;;;;;5035894;28;20473;-76
2022/12/29 08:16:47;;;;;;;8.47;2.40;;;10.20;99.90;;;;;;5038299;28;20496;-77
2022/12/29 08:19:16;;;;;;;5.90;1.87;;;10.20;99.90;;;;;;5038716;28;20448;-77
2022/12/29 08:21:44;;;;;;;7.73;2.60;;;10.20;99.90;;;;;;5053643;28;20452;-77
2022/12/29 08:24:13;;;;;;;8.57;2.40;;;10.10;99.90;;;;;;5035925;28;20515;-77
2022/12/29 08:26:41;;;;;;;5.93;2.30;;;10.10;99.90;;;;;;5052776;28;20442;-77
2022/12/29 08:29:11;;;;;;;6.53;1.80;;;10.10;99.90;;;;;;5058621;28;20452;-78
2022/12/29 08:31:39;;;;;;;6.70;2.43;;;10.10;99.90;;;;;;5042452;28;20457;-78
2022/12/29 08:34:07;;;;;;;7.57;2.83;;;10.10;99.90;;;;;;5040394;28;20459;-77
2022/12/29 08:36:36;;;;;;;5.10;1.93;;;10.10;99.90;;;;;;5040695;28;20469;-77
2022/12/29 08:39:04;;;;;;;4.43;1.80;;;10.10;99.90;;;;;;5059843;28;20441;-78
2022/12/29 08:41:32;;;;;;;5.00;2.00;;;10.10;99.90;;;;;;5040600;28;20449;-77
2022/12/29 08:44:00;;;;;;;5.83;2.30;;;10.10;99.90;;;;;;5039457;28;20497;-77
2022/12/29 08:46:30;;;;;;;6.80;2.37;;;10.10;99.90;;;;;;5039496;28;20502;-77
2022/12/29 08:48:58;;;;;;;5.07;2.00;;;10.20;99.90;;;;;;5040239;28;20560;-77
2022/12/29 08:51:26;;;;;;;7.07;2.37;;;10.10;99.90;;;;;;5057644;28;20480;-77
2022/12/29 08:53:54;;;;;;;5.50;2.00;;;10.20;99.90;;;;;;5039771;28;20450;-77
2022/12/29 08:56:23;;;;;;;6.47;2.50;;;10.20;99.90;;;;;;5039267;28;20466;-77
2022/12/29 08:58:55;;;;;;;5.77;2.10;;;10.20;99.90;;;;;;5041010;28;20513;-77
2022/12/29 09:01:24;;;;;;;8.13;2.33;;;10.20;99.90;;;;;;5041029;28;20950;-76
2022/12/29 09:03:55;;;;;;;6.23;2.10;;;10.20;99.90;;;;;;5041544;28;20890;-77
2022/12/29 09:06:43;;;;;;;5.97;2.30;;;10.20;99.90;;;;;;5039812;28;20469;-77
2022/12/29 09:09:12;;;;;;;6.83;2.20;;;10.20;99.90;;;;;;5060212;28;20445;-79
2022/12/29 09:11:40;;;;;;;6.73;2.33;;;10.20;99.90;;;;;;5041740;28;20790;-77
2022/12/29 09:14:09;;;;;;;6.53;1.97;;;10.30;99.90;;;;;;5056962;28;20800;-79
2022/12/29 09:16:37;;;;;;;4.40;2.00;;;10.20;99.90;;;;;;5039542;28;20470;-78
2022/12/29 09:19:07;;;;;;;5.37;2.00;;;10.20;99.90;;;;;;5057672;28;20544;-78
2022/12/29 09:21:35;;;;;;;4.40;1.90;;;10.20;99.90;;;;;;5038477;28;20541;-77
2022/12/29 09:24:03;;;;;;;7.63;2.70;;;10.20;99.90;;;;;;5037550;28;20470;-75
2022/12/29 09:26:32;;;;;;;4.53;1.70;;;10.20;99.90;;;;;;5056210;28;20519;-77
2022/12/29 09:29:00;;;;;;;7.30;1.90;;;10.30;99.90;;;;;;5042636;28;20450;-78
2022/12/29 09:31:28;;;;;;;5.70;2.37;;;10.30;99.90;;;;;;5043162;28;20819;-78
2022/12/29 09:33:56;;;;;;;7.87;2.10;;;10.30;99.90;;;;;;5042692;28;20486;-78
2022/12/29 09:36:26;;;;;;;7.13;1.90;;;10.30;99.90;;;;;;5059901;28;20473;-78
2022/12/29 09:38:54;;;;;;;4.70;1.90;;;10.30;99.90;;;;;;5042301;28;20465;-78
2022/12/29 09:41:31;;;;;;;7.73;2.27;;;10.30;99.90;;;;;;5057676;28;20446;-78
2022/12/29 09:44:13;;;;;;;6.60;1.70;;;10.30;99.90;;;;;;5038335;28;20824;-77
2022/12/29 09:46:45;;;;;;;4.70;2.07;;;10.30;99.90;;;;;;5037326;28;20569;-77
2022/12/29 09:49:22;;;;;;;7.50;2.37;;;10.30;99.90;;;;;;5037202;28;20434;-77
2022/12/29 09:51:54;;;;;;;5.23;1.83;;;10.30;99.90;;;;;;5039060;28;20556;-77
2022/12/29 09:54:39;;;;;;;5.47;2.03;;;10.30;99.90;;;;;;5060420;28;20547;-78
2022/12/29 09:57:17;;;;;;;6.90;2.03;;;10.30;99.90;;;;;;5043497;28;20442;-79
2022/12/29 09:59:47;;;;;;;5.13;1.97;;;10.30;99.90;;;;;;5058755;28;20426;-78
2022/12/29 10:02:28;;;;;;;5.93;1.73;;;10.30;99.90;;;;;;5057948;28;20457;-78
2022/12/29 10:04:56;;;;;;;4.20;2.10;;;10.30;99.90;;;;;;5059436;28;20482;-78
2022/12/29 10:07:34;;;;;;;7.03;2.17;;;10.40;99.90;;;;;;5040023;28;20446;-78
2022/12/29 10:10:16;;;;;;;5.60;1.90;;;10.40;99.90;;;;;;5040138;28;20452;-79
2022/12/29 10:12:55;;;;;;;8.17;2.03;;;10.30;99.90;;;;;;5039026;28;20858;-79
2022/12/29 10:15:36;;;;;;;6.90;1.77;;;10.40;99.90;;;;;;5037797;28;20474;-78
2022/12/29 10:18:18;;;;;;;6.43;2.37;;;10.40;99.90;;;;;;5039828;28;20462;-78
2022/12/29 10:20:53;;;;;;;5.93;1.80;;;10.40;99.90;;;;;;5055132;28;20912;-77
2022/12/29 10:23:29;;;;;;;5.60;1.70;;;10.40;99.90;;;;;;5054609;28;20776;-78
2022/12/29 10:25:59;;;;;;;4.33;1.53;;;10.40;99.90;;;;;;5039030;28;20585;-78
2022/12/29 10:28:36;;;;;;;4.50;1.63;;;10.40;99.90;;;;;;5037079;28;20529;-78
2022/12/29 10:31:10;;;;;;;3.63;1.33;;;10.40;99.90;;;;;;5037884;28;20461;-77
2022/12/29 10:33:42;;;;;;;5.17;2.07;;;10.50;99.90;;;;;;5054371;28;20525;-77
2022/12/29 10:36:17;;;;;;;3.17;1.10;;;10.50;99.90;;;;;;5054547;28;20478;-77
2022/12/29 10:38:56;;;;;;;5.50;1.20;;;10.50;99.90;;;;;;5055372;28;20513;-78
2022/12/29 10:41:30;;;;;;;2.90;1.40;;;10.50;99.90;;;;;;5057586;28;20521;-78
2022/12/29 10:44:01;;;;;;;4.20;1.37;;;10.50;99.90;;;;;;5040767;28;20466;-79
2022/12/29 10:46:34;;;;;;;4.97;1.60;;;10.50;99.90;;;;;;5038653;28;20492;-77
2022/12/29 10:49:03;;;;;;;4.40;1.40;;;10.50;99.90;;;;;;5038993;28;20478;-78
2022/12/29 10:51:34;;;;;;;4.53;1.40;;;10.50;99.90;;;;;;5059170;28;20456;-78
2022/12/29 10:54:07;;;;;;;5.93;2.03;;;10.50;99.90;;;;;;5057342;28;20458;-78
2022/12/29 10:56:40;;;;;;;3.50;1.40;;;10.50;99.90;;;;;;5039600;28;20461;-78
2022/12/29 10:59:17;;;;;;;6.87;2.00;;;10.50;99.90;;;;;;5038388;28;20481;-78
2022/12/29 11:01:57;;;;;;;6.13;2.23;;;10.50;99.90;;;;;;5055646;28;20472;-79
2022/12/29 11:04:41;;;;;;;4.20;1.57;;;10.50;99.90;;;;;;5039240;28;21053;-77
2022/12/29 11:07:11;;;;;;;4.37;1.80;;;10.50;99.90;;;;;;5041366;28;20448;-79
2022/12/29 11:09:45;;;;;;;5.00;1.80;;;10.50;99.90;;;;;;5039812;28;21030;-79
2022/12/29 11:12:23;;;;;;;7.70;4.80;;;10.50;99.90;;;;;;5060677;28;20788;-78
2022/12/29 11:15:16;;;;;;;5.60;2.13;;;10.60;99.90;;;;;;5037124;28;20437;-77
2022/12/29 11:17:46;;;;;;;5.33;2.00;;;10.60;99.90;;;;;;5039354;28;20442;-78
2022/12/29 11:20:32;;;;;;;7.80;2.40;;;10.60;99.90;;;;;;5037072;28;20805;-76
2022/12/29 11:23:01;;;;;;;6.77;2.20;;;10.60;99.90;;;;;;5041897;28;20458;-78
2022/12/29 11:25:31;;;;;;;7.80;2.10;;;10.60;99.90;;;;;;5039259;28;20515;-78
2022/12/29 11:28:03;;;;;;;10.07;2.90;;;10.60;99.90;;;;;;5037339;28;20438;-78
2022/12/29 11:30:33;;;;;;;8.13;2.37;;;10.70;99.90;;;;;;5037319;28;20504;-77
2022/12/29 11:33:06;;;;;;;6.53;2.43;;;10.70;99.90;;;;;;5037769;28;20474;-79
2022/12/29 11:35:36;;;;;;;5.57;1.47;;;10.70;99.90;;;;;;5056686;28;20458;-78
2022/12/29 11:38:20;;;;;;;6.10;1.60;;;10.70;99.90;;;;;;5036606;28;20529;-76
2022/12/29 11:40:50;;;;;;;10.33;2.40;;;10.70;99.90;;;;;;5055299;28;20505;-77
2022/12/29 11:43:24;;;;;;;8.63;2.37;;;10.70;99.90;;;;;;5038314;28;20816;-77
2022/12/29 11:45:56;;;;;;;6.30;2.23;;;10.80;99.90;;;;;;5039949;28;20516;-78
2022/12/29 11:48:25;;;;;;;7.60;2.20;;;10.80;99.90;;;;;;5060065;28;20415;-78
2022/12/29 11:50:58;;;;;;;6.93;2.47;;;10.80;99.90;;;;;;5040111;28;20470;-77
2022/12/29 11:53:29;;;;;;;6.63;1.80;;;10.80;99.90;;;;;;5039723;28;20548;-78
2022/12/29 11:56:00;;;;;;;4.83;1.70;;;10.90;99.90;;;;;;5039509;28;20560;-78
2022/12/29 11:58:33;;;;;;;6.70;1.90;;;10.90;99.90;;;;;;5038758;28;20452;-78
2022/12/29 12:01:05;;;;;;;4.80;2.10;;;10.90;99.90;;;;;;5054693;28;20460;-77
2022/12/29 12:03:38;;;;;;;6.13;1.83;;;10.90;99.90;;;;;;5040984;28;20441;-77
2022/12/29 12:06:13;;;;;;;5.83;1.90;;;10.90;99.90;;;;;;5042732;28;20481;-78
2022/12/29 12:08:48;;;;;;;4.70;1.47;;;11.00;99.90;;;;;;5050079;28;20974;-77
2022/12/29 12:11:20;;;;;;;5.40;1.47;;;11.00;99.90;;;;;;5074369;28;20449;-77
2022/12/29 12:13:58;;;;;;;6.17;2.53;;;11.00;99.90;;;;;;5059249;28;20989;-78
2022/12/29 12:16:36;;;;;;;5.70;1.80;;;11.00;99.90;;;;;;5057851;28;20468;-76
2022/12/29 12:19:14;;;;;;;4.80;1.67;;;11.00;99.90;;;;;;5053743;28;20449;-79
2022/12/29 12:21:47;;;;;;;5.80;1.80;;;11.00;99.90;;;;;;5043005;28;20438;-78
2022/12/29 12:24:38;;;;;;;9.70;2.13;;;11.00;99.90;;;;;;5061825;28;20426;-78
2022/12/29 12:27:16;;;;;;;4.53;1.63;;;11.00;99.90;;;;;;5039804;28;21146;-80
2022/12/29 12:29:51;;;;;;;5.70;2.00;;;11.00;99.90;;;;;;5057530;28;20434;-77
2022/12/29 12:32:25;;;;;;;4.83;1.70;;;11.00;99.90;;;;;;5041594;28;20444;-78
2022/12/29 12:34:53;;;;;;;5.27;1.70;;;11.00;99.90;;;;;;5041640;28;20469;-77
2022/12/29 12:37:40;;;;;;;5.30;2.20;;;11.00;99.90;;;;;;5056694;28;20954;-78
2022/12/29 12:40:34;;;;;;;6.03;1.70;;;11.00;99.90;;;;;;5038938;28;20438;-76
2022/12/29 12:43:23;;;;;;;6.10;1.73;;;11.00;99.90;;;;;;5043992;28;20513;-76
2022/12/29 12:46:05;;;;;;;4.53;1.70;;;11.00;99.90;;;;;;5043362;28;20477;-79
2022/12/29 12:49:03;;;;;;;4.70;1.40;;;11.00;99.90;;;;;;5040623;28;20434;-78
2022/12/29 12:51:38;;;;;;;7.90;2.57;;;10.90;99.90;;;;;;5010060;28;20458;-78
2022/12/29 12:54:24;;;;;;;5.87;2.13;;;10.90;99.90;;;;;;5039146;28;20831;-77
2022/12/29 12:57:06;;;;;;;6.07;2.20;;;10.90;99.90;;;;;;5056906;28;20959;-78
2022/12/29 12:59:45;;;;;;;5.83;1.70;;;10.80;99.90;;;;;;5038549;28;20461;-78
2022/12/29 13:02:37;;;;;;;6.17;1.77;;;10.80;99.90;;;;;;5040055;28;20438;-78
2022/12/29 13:05:21;;;;;;;7.40;1.83;;;10.80;99.90;;;;;;5044549;28;20476;-79
2022/12/29 13:08:07;;;;;;;6.33;1.80;;;10.80;99.90;;;;;;5038876;28;20442;-77
2022/12/29 13:10:43;;;;;;;6.70;2.07;;;10.70;99.90;;;;;;5056755;28;20453;-77
2022/12/29 13:13:54;;;;;;;4.13;1.60;;;10.70;99.90;;;;;;5055602;28;20425;-77
2022/12/29 13:16:32;;;;;;;6.47;1.80;;;10.70;99.90;;;;;;4994723;28;20468;-77
2022/12/29 13:19:09;;;;;;;5.90;1.90;;;10.70;99.90;;;;;;5030839;28;20822;-77
2022/12/29 13:21:52;;;;;;;6.20;1.80;;;10.70;99.90;;;;;;5037642;28;20500;-77
2022/12/29 13:24:41;;;;;;;6.30;2.27;;;10.70;99.90;;;;;;5038678;28;20485;-78
2022/12/29 13:27:20;;;;;;;5.40;1.80;;;10.70;99.90;;;;;;5038171;28;20832;-77
2022/12/29 13:30:00;;;;;;;5.53;2.40;;;10.80;99.90;;;;;;5041940;28;20449;-79
2022/12/29 13:32:43;;;;;;;5.80;1.93;;;10.80;99.90;;;;;;5060770;28;20426;-78
2022/12/29 13:35:39;;;;;;;8.70;2.80;;;10.80;99.90;;;;;;5040926;28;20485;-78
2022/12/29 13:38:14;;;;;;;5.13;1.67;;;10.90;99.90;;;;;;5039922;28;20549;-78
2022/12/29 13:40:49;;;;;;;6.00;2.30;;;10.80;99.90;;;;;;5040351;28;20446;-77
2022/12/29 13:43:20;;;;;;;5.93;1.93;;;10.80;99.90;;;;;;5040240;28;20450;-78
2022/12/29 13:45:56;;;;;;;9.67;2.53;;;10.80;99.90;;;;;;5057776;28;20466;-78
2022/12/29 13:48:35;;;;;;;6.73;2.60;;;10.80;99.90;;;;;;5042414;28;20441;-78